Time;durP1;ratioP1;P1;durP2;ratioP2;P2;SDS_P1;SDS_P2;PMS_P1;PMS_P2;Temp;Humidity;BMP_temperature;BMP_pressure;BME280_temperature;BME280_humidity;BME280_pressure;Samples;Min_cycle;Max_cycle;Signal;HPM_P1;HPM_P2
2022/08/28 00:01:03;;;;;;;9.23;6.53;;;19.90;99.90;;;;;;5052836;28;20063;-82
2022/08/28 00:03:31;;;;;;;10.93;7.13;;;;;;;;;;5066534;28;20029;-81
2022/08/28 00:05:57;;;;;;;9.82;6.60;;;19.90;99.90;;;;;;5056805;28;20021;-82
2022/08/28 00:08:23;;;;;;;8.10;6.40;;;;;;;;;;5065068;28;20505;-80
2022/08/28 00:10:52;;;;;;;8.75;6.85;;;;;;;;;;5064890;28;20029;-80
2022/08/28 00:13:20;;;;;;;9.60;6.70;;;19.90;99.90;;;;;;5066000;28;20503;-82
2022/08/28 00:15:48;;;;;;;10.30;6.85;;;19.90;99.90;;;;;;5066114;28;20079;-82
2022/08/28 00:18:15;;;;;;;10.05;6.63;;;19.90;99.90;;;;;;5048773;28;20028;-81
2022/08/28 00:20:41;;;;;;;10.27;7.70;;;;;;;;;;5049707;28;20029;-82
2022/08/28 00:23:07;;;;;;;10.20;7.22;;;;;;;;;;5063080;28;20025;-83
2022/08/28 00:25:34;;;;;;;10.15;7.10;;;19.80;99.90;;;;;;5065406;28;20025;-82
2022/08/28 00:28:04;;;;;;;8.95;6.93;;;19.20;99.90;;;;;;5063897;28;20027;-81
2022/08/28 00:30:35;;;;;;;10.60;6.75;;;19.80;99.90;;;;;;5043620;28;20029;-84
2022/08/28 00:33:05;;;;;;;12.38;7.53;;;19.80;99.90;;;;;;5051508;28;20502;-81
2022/08/28 00:35:31;;;;;;;;;;;19.80;99.90;;;;;;5053142;28;20027;-81
2022/08/28 00:37:57;;;;;;;9.73;6.75;;;19.80;99.90;;;;;;5052595;28;19905;-82
2022/08/28 00:40:25;;;;;;;9.63;6.80;;;19.80;99.90;;;;;;5060509;28;20033;-81
2022/08/28 00:42:51;;;;;;;8.82;6.78;;;19.80;99.90;;;;;;5058777;28;20016;-82
2022/08/28 00:45:19;;;;;;;11.45;6.97;;;19.80;99.90;;;;;;5075409;28;20005;-82
2022/08/28 00:47:45;;;;;;;9.57;7.03;;;;;;;;;;5075432;28;20037;-84
2022/08/28 00:50:16;;;;;;;10.52;6.75;;;19.80;99.90;;;;;;5083925;28;20079;-81
2022/08/28 00:52:47;;;;;;;9.80;6.50;;;19.80;99.90;;;;;;5063302;28;20044;-82
2022/08/28 00:55:18;;;;;;;28.73;15.40;;;19.80;99.90;;;;;;5064859;28;20033;-81
2022/08/28 00:57:53;;;;;;;11.82;7.53;;;19.70;99.90;;;;;;5066494;28;20052;-82
2022/08/28 01:00:30;;;;;;;14.23;7.22;;;19.80;99.90;;;;;;5066502;28;20025;-82
2022/08/28 01:02:57;;;;;;;12.07;6.78;;;19.70;99.90;;;;;;5067137;28;20032;-82
2022/08/28 01:05:23;;;;;;;12.25;7.13;;;;;;;;;;5065993;28;20022;-81
2022/08/28 01:07:49;;;;;;;11.88;6.57;;;;;;;;;;5066598;28;20025;-83
2022/08/28 01:10:19;;;;;;;10.60;7.32;;;19.60;99.90;;;;;;5068590;28;20032;-82
2022/08/28 01:12:45;;;;;;;8.18;6.15;;;19.60;99.90;;;;;;5037537;28;20033;-82
2022/08/28 01:15:15;;;;;;;13.30;7.35;;;19.50;99.90;;;;;;5062927;28;20033;-83
2022/08/28 01:17:45;;;;;;;9.43;7.13;;;19.50;99.90;;;;;;5064007;28;20029;-81
2022/08/28 01:20:16;;;;;;;10.38;6.60;;;19.60;99.90;;;;;;5061698;28;20028;-84
2022/08/28 01:23:13;;;;;;;9.77;7.10;;;19.60;99.90;;;;;;5056294;28;20060;-83
2022/08/28 01:25:39;;;;;;;9.57;7.05;;;19.50;99.90;;;;;;5039069;28;20166;-82
2022/08/28 01:28:07;;;;;;;11.23;7.13;;;19.50;99.90;;;;;;5060784;28;20029;-82
2022/08/28 01:30:33;;;;;;;11.18;6.63;;;19.60;99.90;;;;;;5049251;28;20031;-82
2022/08/28 01:33:00;;;;;;;12.32;6.80;;;19.60;99.90;;;;;;5065920;28;20025;-82
2022/08/28 01:35:36;;;;;;;8.05;6.35;;;19.60;99.90;;;;;;5052054;28;20035;-83
2022/08/28 01:38:03;;;;;;;7.80;6.15;;;;;;;;;;5063379;28;20029;-81
2022/08/28 01:40:35;;;;;;;8.25;5.88;;;19.50;99.90;;;;;;5077500;28;20530;-81
2022/08/28 01:43:19;;;;;;;9.77;7.32;;;19.50;99.90;;;;;;5044818;28;20060;-83
2022/08/28 01:45:51;;;;;;;25.23;15.15;;;19.50;99.90;;;;;;5062041;28;20052;-79
2022/08/28 01:48:19;;;;;;;13.60;7.20;;;19.50;99.90;;;;;;5050335;28;20029;-79
2022/08/28 01:50:45;;;;;;;12.57;6.53;;;19.50;99.90;;;;;;5058115;28;20068;-80
2022/08/28 01:53:14;;;;;;;11.50;6.68;;;19.50;99.90;;;;;;5061920;28;20475;-84
2022/08/28 01:55:40;;;;;;;10.95;6.97;;;19.50;99.90;;;;;;5048848;28;20104;-82
2022/08/28 01:58:07;;;;;;;10.45;6.43;;;19.50;99.90;;;;;;5060911;28;20032;-81
2022/08/28 02:00:33;;;;;;;10.05;6.97;;;19.40;99.90;;;;;;5047416;28;20021;-82
2022/08/28 02:02:59;;;;;;;9.80;6.18;;;;;;;;;;5056259;28;20025;-81
2022/08/28 02:05:29;;;;;;;9.98;6.15;;;19.50;99.90;;;;;;5063051;28;20021;-82
2022/08/28 02:07:56;;;;;;;8.25;5.70;;;19.50;99.90;;;;;;5064281;28;20025;-80
2022/08/28 02:10:23;;;;;;;8.82;5.75;;;20.60;99.90;;;;;;5056468;28;20549;-82
2022/08/28 02:12:49;;;;;;;10.25;5.38;;;19.50;99.90;;;;;;5051054;28;20398;-81
2022/08/28 02:15:15;;;;;;;8.63;5.65;;;19.50;99.90;;;;;;5051960;28;20024;-82
2022/08/28 02:17:41;;;;;;;10.25;6.40;;;19.50;99.90;;;;;;5049036;28;20443;-81
2022/08/28 02:20:07;;;;;;;9.82;5.82;;;19.50;99.90;;;;;;5033998;28;20028;-81
2022/08/28 02:22:33;;;;;;;11.55;7.75;;;;;;;;;;5049921;28;20051;-81
2022/08/28 02:24:59;;;;;;;10.88;6.97;;;19.50;99.90;;;;;;5049230;28;20028;-80
2022/08/28 02:27:25;;;;;;;11.73;6.28;;;;;;;;;;5046136;28;20452;-82
2022/08/28 02:29:51;;;;;;;13.93;6.40;;;;;;;;;;5059511;28;20033;-82
2022/08/28 02:32:17;;;;;;;7.63;5.90;;;;;;;;;;5050932;28;20028;-81
2022/08/28 02:34:43;;;;;;;9.00;6.07;;;;;;;;;;5043963;28;20025;-79
2022/08/28 02:37:12;;;;;;;9.98;6.03;;;19.50;99.90;;;;;;5060836;28;20100;-79
2022/08/28 02:39:38;;;;;;;12.40;6.25;;;19.50;99.90;;;;;;5053664;28;20276;-83
2022/08/28 02:42:05;;;;;;;10.63;5.78;;;19.50;99.90;;;;;;5035587;28;20045;-82
2022/08/28 02:44:31;;;;;;;9.13;6.18;;;;;;;;;;5041510;28;20021;-79
2022/08/28 02:46:57;;;;;;;11.95;6.88;;;;;;;;;;5065042;28;20751;-79
2022/08/28 02:49:23;;;;;;;8.40;5.93;;;;;;;;;;5042315;28;20024;-83
2022/08/28 02:51:55;;;;;;;10.15;5.70;;;19.50;99.90;;;;;;5065611;28;20088;-83
2022/08/28 02:54:21;;;;;;;8.77;5.25;;;;;;;;;;5057247;28;20032;-83
2022/08/28 02:56:47;;;;;;;9.98;5.47;;;;;;;;;;5069940;28;20024;-81
2022/08/28 02:59:13;;;;;;;7.18;5.57;;;;;;;;;;5054765;28;20367;-82
2022/08/28 03:01:39;;;;;;;7.57;5.55;;;;;;;;;;5056978;28;20456;-82
2022/08/28 03:04:05;;;;;;;8.38;5.13;;;;;;;;;;5063683;28;20021;-83
2022/08/28 03:06:32;;;;;;;7.78;5.05;;;19.50;99.90;;;;;;5059274;28;20028;-82
2022/08/28 03:08:58;;;;;;;10.43;5.25;;;;;;;;;;5062477;28;20554;-83
2022/08/28 03:11:24;;;;;;;11.45;5.55;;;;;;;;;;5064339;28;20246;-82
2022/08/28 03:13:50;;;;;;;7.57;5.25;;;19.50;99.90;;;;;;5066538;28;20032;-83
2022/08/28 03:16:17;;;;;;;8.93;5.35;;;19.50;99.90;;;;;;5041763;28;20044;-83
2022/08/28 03:18:43;;;;;;;10.35;5.40;;;19.40;99.90;;;;;;5050527;28;20029;-82
2022/08/28 03:21:10;;;;;;;7.97;5.07;;;21.00;99.90;;;;;;5052074;28;20024;-83
2022/08/28 03:23:37;;;;;;;6.68;4.72;;;19.50;99.90;;;;;;5050970;28;20029;-84
2022/08/28 03:26:04;;;;;;;8.25;5.30;;;19.50;99.90;;;;;;5049049;28;20056;-82
2022/08/28 03:28:37;;;;;;;9.70;5.47;;;19.20;99.90;;;;;;5058207;28;20088;-82
2022/08/28 03:31:04;;;;;;;6.20;5.07;;;;;;;;;;5066698;28;20029;-83
2022/08/28 03:33:30;;;;;;;8.93;4.90;;;19.40;99.90;;;;;;5066383;28;20025;-83
2022/08/28 03:35:57;;;;;;;9.38;5.05;;;;;;;;;;5061328;28;20025;-82
2022/08/28 03:38:23;;;;;;;9.25;5.18;;;19.30;99.90;;;;;;5050358;28;20124;-82
2022/08/28 03:40:48;;;;;;;13.23;5.72;;;19.40;99.90;;;;;;5047980;28;20064;-81
2022/08/28 03:43:18;;;;;;;7.80;5.32;;;19.40;99.90;;;;;;5061553;28;20025;-83
2022/08/28 03:45:59;;;;;;;9.50;5.55;;;19.40;99.90;;;;;;5055446;28;20024;-82
2022/08/28 03:48:27;;;;;;;9.48;5.30;;;19.20;99.90;;;;;;5055315;28;20033;-82
2022/08/28 03:50:53;;;;;;;6.88;5.30;;;;;;;;;;5061307;28;20029;-84
2022/08/28 03:53:21;;;;;;;10.50;5.75;;;19.30;99.90;;;;;;5067550;28;20093;-81
2022/08/28 03:55:46;;;;;;;7.68;5.25;;;19.20;99.90;;;;;;5044293;28;20025;-81
2022/08/28 03:58:12;;;;;;;7.55;5.75;;;19.30;99.90;;;;;;5062476;28;20036;-81
2022/08/28 04:00:39;;;;;;;8.45;5.47;;;19.20;99.90;;;;;;5058573;28;20038;-81
2022/08/28 04:03:04;;;;;;;7.90;5.15;;;19.20;99.90;;;;;;5062523;28;20116;-82
2022/08/28 04:05:33;;;;;;;8.25;5.15;;;;;;;;;;5050432;28;20029;-82
2022/08/28 04:07:59;;;;;;;7.25;5.53;;;19.20;99.90;;;;;;5076194;28;20025;-82
2022/08/28 04:10:24;;;;;;;7.85;5.05;;;19.20;99.90;;;;;;5062603;28;20029;-83
2022/08/28 04:12:50;;;;;;;9.18;5.93;;;;;;;;;;5062721;28;20073;-80
2022/08/28 04:15:16;;;;;;;9.90;5.25;;;19.10;99.90;;;;;;5065039;28;20025;-84
2022/08/28 04:17:42;;;;;;;9.48;6.43;;;;;;;;;;5052330;28;20025;-83
2022/08/28 04:20:09;;;;;;;15.63;8.70;;;19.10;99.90;;;;;;5043926;28;20164;-82
2022/08/28 04:22:36;;;;;;;7.93;4.82;;;;;;;;;;5049788;28;20396;-81
2022/08/28 04:25:03;;;;;;;11.90;5.93;;;19.00;99.90;;;;;;5041784;28;20040;-79
2022/08/28 04:27:28;;;;;;;9.05;5.03;;;19.10;99.90;;;;;;5057778;28;20104;-82
2022/08/28 04:29:54;;;;;;;9.52;4.82;;;;;;;;;;5040335;28;20572;-80
2022/08/28 04:32:22;;;;;;;7.53;4.93;;;;;;;;;;5061647;28;20029;-82
2022/08/28 04:34:48;;;;;;;6.80;5.10;;;19.10;99.90;;;;;;5058165;28;20037;-81
2022/08/28 04:37:15;;;;;;;7.35;5.00;;;19.10;99.90;;;;;;5058924;28;20045;-82
2022/08/28 04:39:41;;;;;;;6.75;4.90;;;;;;;;;;5047436;28;20097;-81
2022/08/28 04:42:07;;;;;;;7.53;4.95;;;;;;;;;;5063115;28;20029;-82
2022/08/28 04:44:33;;;;;;;10.35;5.20;;;19.10;99.90;;;;;;5070185;28;20047;-81
2022/08/28 04:46:59;;;;;;;7.35;5.55;;;;;;;;;;5061020;28;20534;-81
2022/08/28 04:49:26;;;;;;;7.90;4.88;;;;;;;;;;5053730;28;20415;-83
2022/08/28 04:51:52;;;;;;;8.32;4.78;;;;;;;;;;5062125;28;20021;-82
2022/08/28 04:54:18;;;;;;;8.30;5.07;;;19.20;99.90;;;;;;5050664;28;20033;-84
2022/08/28 04:56:45;;;;;;;6.85;5.15;;;19.30;99.90;;;;;;5074362;28;20028;-83
2022/08/28 04:59:11;;;;;;;6.45;5.05;;;19.30;99.90;;;;;;5052448;28;20052;-85
2022/08/28 05:01:38;;;;;;;7.60;5.20;;;19.20;99.90;;;;;;5071900;28;20047;-84
2022/08/28 05:04:04;;;;;;;5.82;4.53;;;;;;;;;;5063239;28;20028;-83
2022/08/28 05:06:32;;;;;;;6.18;4.72;;;19.30;99.90;;;;;;5044988;28;20025;-83
2022/08/28 05:08:59;;;;;;;8.50;4.55;;;19.30;99.90;;;;;;5041826;28;20025;-83
2022/08/28 05:11:27;;;;;;;9.27;4.80;;;19.30;99.90;;;;;;5042692;28;20037;-82
2022/08/28 05:13:54;;;;;;;7.78;4.57;;;19.30;99.90;;;;;;5060412;28;20032;-84
2022/08/28 05:16:20;;;;;;;8.80;4.97;;;;;;;;;;5051319;28;20041;-84
2022/08/28 05:19:15;;;;;;;8.40;5.15;;;19.30;99.90;;;;;;5071535;28;20048;-84
2022/08/28 05:21:50;;;;;;;6.78;4.75;;;19.50;99.90;;;;;;5028126;28;20551;-83
2022/08/28 05:24:38;;;;;;;7.65;4.90;;;;;;;;;;5074832;28;20029;-85
2022/08/28 05:28:48;;;;;;;6.82;4.63;;;19.60;99.90;;;;;;5063947;28;20033;-83
2022/08/28 05:30:49;;;;;;;5.82;4.50;;;;;;;;;;5044582;28;20040;-81
2022/08/28 05:33:15;;;;;;;8.57;4.60;;;;;;;;;;5061076;28;20029;-83
2022/08/28 05:35:43;;;;;;;8.00;5.20;;;19.60;99.90;;;;;;5064234;28;20025;-80
2022/08/28 05:38:09;;;;;;;9.82;4.85;;;;;;;;;;5056726;28;20033;-83
2022/08/28 05:40:42;;;;;;;7.65;4.85;;;19.50;99.90;;;;;;5060844;28;20028;-81
2022/08/28 05:43:07;;;;;;;7.85;4.60;;;19.40;99.90;;;;;;5048488;28;20048;-81
2022/08/28 05:45:33;;;;;;;6.30;4.25;;;19.40;99.90;;;;;;5047555;28;20036;-82
2022/08/28 05:47:58;;;;;;;6.82;4.60;;;19.40;99.90;;;;;;5061709;28;20029;-82
2022/08/28 05:50:25;;;;;;;7.15;4.65;;;;;;;;;;5034136;28;20039;-82
2022/08/28 05:52:50;;;;;;;8.07;4.60;;;19.30;99.90;;;;;;5076834;28;20020;-82
2022/08/28 05:55:16;;;;;;;8.77;4.78;;;;;;;;;;5043162;28;20028;-83
2022/08/28 05:57:42;;;;;;;6.82;4.60;;;19.40;99.90;;;;;;5037840;28;20032;-81
2022/08/28 06:00:11;;;;;;;8.30;4.85;;;19.40;99.90;;;;;;5059463;28;20090;-80
2022/08/28 06:02:37;;;;;;;6.93;4.60;;;19.40;99.90;;;;;;5039213;28;20030;-83
2022/08/28 06:05:03;;;;;;;6.00;4.20;;;19.40;99.90;;;;;;5061547;28;20052;-80
2022/08/28 06:07:29;;;;;;;6.57;3.97;;;19.40;99.90;;;;;;5043466;28;20635;-82
2022/08/28 06:09:54;;;;;;;6.25;4.32;;;19.50;99.90;;;;;;5049726;28;20040;-82
2022/08/28 06:12:20;;;;;;;8.00;4.07;;;19.30;99.90;;;;;;5062529;28;20036;-84
2022/08/28 06:14:46;;;;;;;9.05;4.40;;;19.30;99.90;;;;;;5064920;28;20031;-83
2022/08/28 06:17:12;;;;;;;6.00;4.35;;;;;;;;;;5063996;28;20025;-82
2022/08/28 06:19:37;;;;;;;7.80;4.50;;;19.40;99.90;;;;;;5063643;28;20457;-82
2022/08/28 06:22:04;;;;;;;7.93;4.53;;;19.50;99.90;;;;;;5056693;28;20037;-82
2022/08/28 06:24:31;;;;;;;7.13;4.03;;;19.60;99.90;;;;;;5049903;28;20017;-84
2022/08/28 06:26:58;;;;;;;8.05;4.10;;;19.60;99.90;;;;;;5055052;28;20116;-82
2022/08/28 06:29:24;;;;;;;8.50;3.97;;;;;;;;;;5073542;28;20108;-82
2022/08/28 06:31:59;;;;;;;8.23;3.97;;;19.70;99.90;;;;;;5057886;28;20025;-83
2022/08/28 06:34:25;;;;;;;9.50;4.00;;;;;;;;;;5063031;28;20088;-83
2022/08/28 06:37:04;;;;;;;6.40;3.75;;;;;;;;;;5052048;28;20475;-85
2022/08/28 06:39:30;;;;;;;6.18;4.10;;;;;;;;;;5059143;28;20498;-80
2022/08/28 06:41:56;;;;;;;6.25;4.03;;;;;;;;;;5065308;28;20028;-80
2022/08/28 06:44:22;;;;;;;6.43;3.97;;;;;;;;;;5055988;28;20045;-83
2022/08/28 06:46:50;;;;;;;7.47;3.80;;;20.00;99.90;;;;;;5049468;28;20021;-81
2022/08/28 06:49:16;;;;;;;9.88;4.13;;;;;;;;;;5043027;28;20149;-80
2022/08/28 06:51:42;;;;;;;5.25;3.47;;;;;;;;;;5063419;28;20040;-82
2022/08/28 06:54:08;;;;;;;5.55;3.70;;;;;;;;;;5059222;28;20382;-82
2022/08/28 06:56:34;;;;;;;5.72;3.88;;;;;;;;;;5061657;28;20028;-80
2022/08/28 06:59:00;;;;;;;6.90;3.40;;;20.30;99.90;;;;;;5057953;28;20036;-83
2022/08/28 07:01:32;;;;;;;4.97;3.75;;;20.50;99.90;;;;;;5038476;28;20272;-84
2022/08/28 07:04:02;;;;;;;5.30;3.33;;;20.40;99.90;;;;;;5057014;28;20021;-83
2022/08/28 07:06:33;;;;;;;;;;;20.50;99.90;;;;;;5068915;28;20017;-83
2022/08/28 07:08:58;;;;;;;;;;;20.50;99.90;;;;;;5072278;28;19956;-83
2022/08/28 07:11:27;;;;;;;6.15;3.63;;;20.70;99.90;;;;;;5069510;28;19923;-82
2022/08/28 07:13:54;;;;;;;5.60;3.58;;;;;;;;;;5072077;28;20036;-83
2022/08/28 07:16:21;;;;;;;6.93;3.33;;;20.80;99.90;;;;;;5046993;28;20467;-82
2022/08/28 07:18:47;;;;;;;4.75;3.40;;;;;;;;;;5050683;28;20036;-84
2022/08/28 07:21:13;;;;;;;7.40;3.63;;;20.90;99.90;;;;;;5065033;28;20391;-83
2022/08/28 07:23:41;;;;;;;5.03;3.42;;;20.90;99.90;;;;;;5061697;28;20584;-81
2022/08/28 07:26:16;;;;;;;6.72;3.30;;;20.90;99.90;;;;;;5062020;28;20036;-81
2022/08/28 07:28:42;;;;;;;5.20;3.15;;;21.00;99.90;;;;;;5062126;28;20040;-80
2022/08/28 07:31:14;;;;;;;6.18;3.40;;;21.00;99.90;;;;;;5040704;28;20029;-81
2022/08/28 07:33:40;;;;;;;5.38;3.22;;;21.10;99.90;;;;;;5049784;28;20495;-83
2022/08/28 07:36:13;;;;;;;5.30;2.92;;;21.10;99.90;;;;;;5056244;28;20029;-83
2022/08/28 07:38:38;;;;;;;7.25;3.50;;;21.10;99.90;;;;;;5061546;28;20032;-82
2022/08/28 07:41:13;;;;;;;6.60;3.60;;;21.30;99.90;;;;;;5062670;28;20123;-80
2022/08/28 07:46:23;;;;;;;3.88;2.80;;;21.30;99.90;;;;;;5061813;28;20047;-82
2022/08/28 07:48:49;;;;;;;5.25;3.00;;;21.30;99.90;;;;;;5054561;28;20021;-81
2022/08/28 07:51:14;;;;;;;5.60;3.50;;;21.30;99.90;;;;;;5077756;28;20119;-81
2022/08/28 07:53:40;;;;;;;5.03;3.50;;;21.50;99.90;;;;;;5066222;28;20025;-83
2022/08/28 07:56:06;;;;;;;6.78;3.08;;;;;;;;;;5050180;28;20490;-80
2022/08/28 07:58:33;;;;;;;7.72;3.30;;;21.70;99.90;;;;;;5068239;28;20055;-84
2022/08/28 08:01:00;;;;;;;6.72;3.35;;;;;;;;;;5061158;28;20036;-82
2022/08/28 08:03:28;;;;;;;7.95;3.28;;;21.70;99.90;;;;;;5066647;28;20017;-85
2022/08/28 08:06:03;;;;;;;7.95;3.40;;;21.80;99.90;;;;;;5049651;28;20468;-82
2022/08/28 08:08:31;;;;;;;4.15;3.05;;;21.90;99.90;;;;;;5054193;28;20029;-83
2022/08/28 08:11:06;;;;;;;6.10;3.28;;;21.90;99.90;;;;;;5061471;28;20430;-83
2022/08/28 08:13:33;;;;;;;5.60;3.15;;;21.90;99.90;;;;;;5060002;28;20040;-83
2022/08/28 08:16:05;;;;;;;6.63;3.20;;;21.80;99.90;;;;;;5062545;28;20031;-84
2022/08/28 08:18:32;;;;;;;6.13;3.40;;;;;;;;;;5042033;28;20028;-83
2022/08/28 08:20:58;;;;;;;6.25;3.35;;;;;;;;;;5066718;28;20033;-84
2022/08/28 08:23:24;;;;;;;5.63;3.35;;;;;;;;;;5062667;28;20029;-83
2022/08/28 08:25:59;;;;;;;5.65;3.53;;;21.70;99.90;;;;;;5062896;28;20021;-84
2022/08/28 08:28:26;;;;;;;7.07;3.30;;;21.80;99.90;;;;;;5057760;28;20051;-84
2022/08/28 08:31:31;;;;;;;8.63;3.45;;;21.80;99.90;;;;;;5062880;28;20051;-82
2022/08/28 08:34:02;;;;;;;4.85;3.15;;;21.80;99.90;;;;;;5026516;28;20044;-84
2022/08/28 08:36:30;;;;;;;7.18;3.60;;;22.00;99.90;;;;;;5056623;28;20478;-85
2022/08/28 08:38:57;;;;;;;5.72;3.60;;;22.10;99.90;;;;;;5068949;28;20037;-83
2022/08/28 08:41:37;;;;;;;8.55;3.50;;;22.20;99.90;;;;;;5055313;28;20075;-84
2022/08/28 08:44:03;;;;;;;6.65;3.40;;;22.20;99.90;;;;;;5058056;28;20035;-84
2022/08/28 08:46:36;;;;;;;5.80;3.22;;;22.20;99.90;;;;;;5046988;28;20024;-83
2022/08/28 08:49:09;;;;;;;7.85;3.08;;;22.20;99.90;;;;;;5067072;28;20025;-83
2022/08/28 08:51:45;;;;;;;5.43;3.15;;;22.40;99.90;;;;;;5071012;28;20547;-83
2022/08/28 08:54:18;;;;;;;7.35;3.30;;;22.30;99.90;;;;;;5058705;28;20032;-82
2022/08/28 08:56:46;;;;;;;7.35;3.58;;;22.40;99.90;;;;;;5057749;28;20029;-81
2022/08/28 08:59:21;;;;;;;6.18;3.60;;;22.50;99.90;;;;;;5073326;28;20029;-82
2022/08/28 09:02:18;;;;;;;4.97;3.25;;;22.50;99.90;;;;;;5060734;28;20025;-82
2022/08/28 09:04:57;;;;;;;8.75;3.30;;;22.50;99.90;;;;;;5074355;28;20032;-81
2022/08/28 09:07:23;;;;;;;7.53;3.42;;;;;;;;;;5069789;28;20517;-82
2022/08/28 09:09:56;;;;;;;9.60;3.85;;;22.50;99.90;;;;;;5064426;28;20029;-82
2022/08/28 09:12:28;;;;;;;5.85;3.03;;;22.50;99.90;;;;;;5048134;28;20026;-84
2022/08/28 09:15:08;;;;;;;8.73;3.28;;;22.60;99.90;;;;;;5062726;28;20461;-79
2022/08/28 09:18:07;;;;;;;6.32;3.30;;;22.60;99.90;;;;;;5066220;28;20028;-83
2022/08/28 09:20:33;;;;;;;5.90;3.30;;;;;;;;;;5059885;28;20049;-84
2022/08/28 09:22:59;;;;;;;7.57;3.38;;;;;;;;;;5052365;28;20033;-80
2022/08/28 09:25:43;;;;;;;6.90;3.60;;;22.70;99.90;;;;;;5055091;28;20025;-83
2022/08/28 09:28:13;;;;;;;8.90;3.47;;;22.70;99.90;;;;;;5057736;28;20021;-82
2022/08/28 09:30:40;;;;;;;5.40;3.08;;;22.70;99.90;;;;;;5051032;28;20033;-84
2022/08/28 09:33:11;;;;;;;7.03;3.25;;;22.90;99.90;;;;;;5045840;28;20426;-81
2022/08/28 09:35:37;;;;;;;7.50;3.58;;;;;;;;;;5049673;28;20033;-84
2022/08/28 09:38:25;;;;;;;5.40;3.22;;;22.90;99.90;;;;;;5061617;28;20013;-85
2022/08/28 09:43:53;;;;;;;7.82;3.70;;;;;;;;;;5063283;28;20032;-82
2022/08/28 09:46:27;;;;;;;5.72;3.38;;;23.10;98.90;;;;;;5064117;28;20097;-86
2022/08/28 09:49:10;;;;;;;7.75;3.13;;;23.10;99.00;;;;;;5054041;28;20060;-82
2022/08/28 09:51:38;;;;;;;6.50;3.00;;;;;;;;;;5060410;28;20032;-83
2022/08/28 09:54:34;;;;;;;6.57;3.17;;;23.10;99.00;;;;;;5057760;28;20020;-83
2022/08/28 09:57:02;;;;;;;8.00;3.28;;;;;;;;;;5053789;28;20483;-84
2022/08/28 09:59:28;;;;;;;7.03;3.25;;;;;;;;;;5057855;28;20035;-84
2022/08/28 10:01:57;;;;;;;8.50;3.58;;;;;;;;;;5059219;28;20025;-84
2022/08/28 10:04:33;;;;;;;5.38;3.00;;;;;;;;;;5047269;28;20296;-82
2022/08/28 10:07:26;;;;;;;5.25;3.40;;;23.30;98.70;;;;;;5070993;28;20028;-86
2022/08/28 10:10:18;;;;;;;5.47;3.42;;;23.50;98.30;;;;;;5036959;28;20087;-84
2022/08/28 10:12:52;;;;;;;7.90;3.55;;;23.50;98.20;;;;;;5043493;28;20029;-84
2022/08/28 10:15:37;;;;;;;7.70;3.22;;;;;;;;;;5064320;28;20543;-84
2022/08/28 10:18:24;;;;;;;5.72;3.13;;;23.80;97.80;;;;;;5069854;28;20033;-84
2022/08/28 10:21:18;;;;;;;4.70;2.90;;;24.10;97.50;;;;;;5059933;28;20059;-86
2022/08/28 10:24:12;;;;;;;10.85;3.53;;;24.20;97.10;;;;;;5068406;28;20025;-84
2022/08/28 10:27:04;;;;;;;6.85;3.63;;;24.30;97.20;;;;;;5044019;28;20120;-85
2022/08/28 10:29:56;;;;;;;5.03;3.15;;;24.60;96.40;;;;;;5061539;28;20371;-83
2022/08/28 10:32:53;;;;;;;7.28;2.88;;;24.60;96.00;;;;;;5046285;28;20032;-83
2022/08/28 10:35:38;;;;;;;4.13;2.80;;;24.50;96.20;;;;;;5059154;28;20032;-82
2022/08/28 10:38:13;;;;;;;5.72;3.10;;;24.70;96.00;;;;;;5041411;28;20047;-83
2022/08/28 10:41:04;;;;;;;5.82;3.20;;;24.70;96.10;;;;;;5061338;28;20096;-81
2022/08/28 10:44:00;;;;;;;5.85;3.08;;;24.70;95.30;;;;;;5053817;28;20082;-83
2022/08/28 10:46:40;;;;;;;6.53;3.17;;;24.70;95.40;;;;;;5044678;28;20055;-83
2022/08/28 10:49:10;;;;;;;5.53;3.30;;;24.90;95.00;;;;;;5049903;28;20024;-83
2022/08/28 10:51:45;;;;;;;6.35;3.20;;;25.10;95.00;;;;;;5058936;28;20052;-84
2022/08/28 10:54:29;;;;;;;8.18;3.47;;;25.10;95.00;;;;;;5061864;28;20032;-83
2022/08/28 10:57:06;;;;;;;6.00;3.33;;;25.40;94.20;;;;;;5039729;28;20021;-84
2022/08/28 10:59:34;;;;;;;5.47;3.17;;;25.40;94.20;;;;;;5059965;28;20505;-83
2022/08/28 11:02:03;;;;;;;8.68;3.38;;;25.40;94.00;;;;;;5042599;28;20029;-83
2022/08/28 11:04:29;;;;;;;6.32;3.10;;;;;;;;;;5060798;28;20014;-84
2022/08/28 11:07:12;;;;;;;6.63;3.13;;;25.20;94.20;;;;;;5069860;28;20029;-85
2022/08/28 11:09:46;;;;;;;6.63;3.03;;;24.90;94.20;;;;;;5048899;28;20394;-84
2022/08/28 11:12:18;;;;;;;5.30;2.95;;;;;;;;;;5053457;28;20028;-84
2022/08/28 11:14:49;;;;;;;6.57;3.28;;;24.50;94.40;;;;;;5056023;28;20402;-83
2022/08/28 11:17:24;;;;;;;6.18;3.05;;;;;;;;;;5064828;28;20032;-85
2022/08/28 11:20:10;;;;;;;5.45;2.90;;;;;;;;;;5068604;28;20045;-85
2022/08/28 11:22:45;;;;;;;6.57;2.92;;;;;;;;;;5073900;28;20032;-82
2022/08/28 11:25:45;;;;;;;4.78;2.97;;;24.60;94.70;;;;;;5073081;28;20022;-84
2022/08/28 11:28:21;;;;;;;7.00;3.20;;;24.80;94.60;;;;;;5061737;28;20008;-86
2022/08/28 11:31:08;;;;;;;4.50;3.00;;;25.20;94.20;;;;;;5076628;28;20013;-86
2022/08/28 11:33:40;;;;;;;5.93;3.28;;;25.50;93.70;;;;;;5068290;28;20083;-83
2022/08/28 11:36:18;;;;;;;5.35;2.92;;;;;;;;;;5057208;28;20025;-84
2022/08/28 11:38:46;;;;;;;7.32;3.80;;;;;;;;;;5055946;28;20059;-81
2022/08/28 11:41:13;;;;;;;6.82;2.90;;;;;;;;;;5052177;28;20025;-82
2022/08/28 11:43:47;;;;;;;6.50;2.70;;;25.90;92.90;;;;;;5062047;28;20028;-83
2022/08/28 11:46:44;;;;;;;6.47;3.40;;;26.00;92.70;;;;;;5055139;28;20024;-82
2022/08/28 11:49:28;;;;;;;5.80;2.88;;;;;;;;;;5037666;28;20030;-82
2022/08/28 11:52:24;;;;;;;5.45;3.33;;;26.30;92.40;;;;;;5065044;28;20031;-83
2022/08/28 11:55:16;;;;;;;5.55;3.10;;;26.30;92.20;;;;;;5059833;28;20037;-83
2022/08/28 11:58:09;;;;;;;8.23;2.90;;;26.30;92.30;;;;;;5061052;28;20017;-81
2022/08/28 12:00:53;;;;;;;6.05;3.20;;;26.20;91.70;;;;;;5048018;28;20063;-81
2022/08/28 12:03:35;;;;;;;5.55;3.20;;;26.20;91.70;;;;;;5057159;28;20017;-85
2022/08/28 12:06:02;;;;;;;6.50;3.05;;;26.30;91.70;;;;;;5048162;28;20484;-84
2022/08/28 12:08:50;;;;;;;5.38;3.15;;;26.40;91.50;;;;;;5041990;28;20048;-81
2022/08/28 12:11:40;;;;;;;5.32;2.90;;;26.40;91.30;;;;;;5057556;28;20060;-84
2022/08/28 12:14:30;;;;;;;7.45;3.00;;;26.20;91.30;;;;;;5048316;28;20033;-81
2022/08/28 12:17:02;;;;;;;;;;;26.20;91.50;;;;;;5055436;28;20051;-82
2022/08/28 12:19:53;;;;;;;7.55;3.30;;;26.30;91.60;;;;;;5077899;28;19911;-84
2022/08/28 12:22:22;;;;;;;7.35;3.38;;;26.60;91.30;;;;;;5063101;28;20029;-83
2022/08/28 12:24:57;;;;;;;6.07;3.63;;;26.70;91.10;;;;;;5064513;28;20076;-84
2022/08/28 12:27:23;;;;;;;6.45;3.65;;;;;;;;;;5057721;28;20017;-82
2022/08/28 12:29:54;;;;;;;4.85;3.22;;;26.80;90.60;;;;;;5071209;28;20032;-83
2022/08/28 12:32:35;;;;;;;7.57;3.30;;;26.90;90.70;;;;;;5065949;28;20088;-83
2022/08/28 12:35:01;;;;;;;7.13;3.33;;;;;;;;;;5064178;28;20425;-83
2022/08/28 12:37:27;;;;;;;7.07;3.58;;;;;;;;;;5078722;28;20029;-84
2022/08/28 12:39:56;;;;;;;8.15;4.03;;;27.30;90.10;;;;;;5051622;28;20029;-82
2022/08/28 12:42:29;;;;;;;4.80;3.10;;;27.50;89.50;;;;;;5068548;28;20024;-83
2022/08/28 12:45:04;;;;;;;9.68;5.45;;;27.70;88.70;;;;;;5052428;28;20490;-84
2022/08/28 12:47:30;;;;;;;6.97;3.30;;;;;;;;;;5065343;28;20630;-85
2022/08/28 12:49:59;;;;;;;6.03;3.08;;;;;;;;;;5068603;28;20092;-83
2022/08/28 12:52:29;;;;;;;7.07;3.78;;;;;;;;;;5066774;28;20021;-84
2022/08/28 12:54:57;;;;;;;5.25;3.20;;;;;;;;;;5065505;28;20033;-83
2022/08/28 12:57:24;;;;;;;5.75;3.20;;;;;;;;;;5066568;28;20029;-86
2022/08/28 12:59:53;;;;;;;7.22;3.10;;;27.90;87.70;;;;;;5072199;28;20021;-84
2022/08/28 13:02:32;;;;;;;7.47;3.53;;;27.70;88.00;;;;;;5053329;28;20021;-84
2022/08/28 13:05:03;;;;;;;5.25;3.55;;;27.80;87.60;;;;;;5054214;28;20425;-86
2022/08/28 13:07:33;;;;;;;7.47;3.50;;;27.70;87.50;;;;;;5064164;28;20025;-85
2022/08/28 13:10:02;;;;;;;5.35;3.17;;;27.60;87.90;;;;;;5070606;28;20051;-85
2022/08/28 13:12:40;;;;;;;;;;;27.60;87.00;;;;;;5058477;28;20028;-83
2022/08/28 13:15:08;;;;;;;7.22;3.83;;;27.60;86.60;;;;;;5054691;28;19972;-85
2022/08/28 13:17:46;;;;;;;6.63;3.45;;;;;;;;;;5070935;28;20411;-82
2022/08/28 13:20:24;;;;;;;6.57;3.20;;;27.70;86.40;;;;;;5065352;28;20021;-85
2022/08/28 13:22:50;;;;;;;5.07;3.42;;;;;;;;;;5065053;28;20044;-84
2022/08/28 13:25:30;;;;;;;6.10;3.58;;;27.70;86.40;;;;;;5049864;28;20033;-83
2022/08/28 13:28:00;;;;;;;6.32;3.72;;;27.90;86.00;;;;;;5046954;28;20056;-84
2022/08/28 13:30:32;;;;;;;6.13;3.67;;;;;;;;;;5041181;28;20017;-83
2022/08/28 13:33:15;;;;;;;5.97;3.28;;;28.00;85.10;;;;;;5054751;28;20370;-85
2022/08/28 13:35:41;;;;;;;4.38;2.97;;;27.90;85.60;;;;;;5041441;28;20029;-82
2022/08/28 13:38:11;;;;;;;8.30;3.78;;;28.10;84.90;;;;;;5041456;28;20013;-82
2022/08/28 13:40:45;;;;;;;11.18;3.90;;;28.10;84.40;;;;;;5035792;28;20028;-83
2022/08/28 13:43:15;;;;;;;7.13;4.05;;;28.20;84.20;;;;;;5042585;28;20024;-83
2022/08/28 13:45:44;;;;;;;5.03;3.25;;;28.20;84.20;;;;;;5041458;28;20474;-83